Commodore Center Heliport


Codes: JMC/JMC
Name: Commodore Center Heliport
City: Sausalito
Country: United States
Elevation: 7 ft.

Photos at Commodore Center Heliport


   Photos courtesy of SpottingLog. You can add your own sightings and photos by signing up for a free trial today.



No photos found.

Weather at Commodore Center Heliport


Time (UTC)DescriptionTempratureWindCloud coverageVisibilityPressureHumidity
13-Jun-2024 03:00Scattered Clouds15°C18 mph, SW30%10000m1011hPa80%
13-Jun-2024 06:00Scattered Clouds14°C18 mph, SW30%10000m1012hPa83%
13-Jun-2024 09:00Scattered Clouds12°C13 mph, SW33%10000m1012hPa85%
13-Jun-2024 12:00Scattered Clouds11°C13 mph, SW43%10000m1012hPa88%
13-Jun-2024 15:00Broken Clouds12°C13 mph, SW51%10000m1014hPa83%
13-Jun-2024 18:00Scattered Clouds13°C16 mph, SW40%10000m1015hPa77%
13-Jun-2024 21:00Few Clouds14°C18 mph, SW24%10000m1015hPa74%
14-Jun-2024 00:00Few Clouds14°C16 mph, SW21%10000m1014hPa76%
14-Jun-2024 03:00Few Clouds12°C13 mph, SW13%10000m1015hPa82%
14-Jun-2024 06:00Clear Sky11°C13 mph, SW7%10000m1016hPa86%
14-Jun-2024 09:00Clear Sky11°C9 mph, SW1%10000m1015hPa85%
14-Jun-2024 12:00Clear Sky11°C7 mph, SW1%10000m1015hPa82%
14-Jun-2024 15:00Clear Sky13°C7 mph, SW2%10000m1016hPa76%
14-Jun-2024 18:00Clear Sky14°C7 mph, SW1%10000m1017hPa75%
14-Jun-2024 21:00Clear Sky16°C11 mph, SW4%10000m1016hPa62%
15-Jun-2024 00:00Clear Sky17°C16 mph, W2%10000m1015hPa53%
15-Jun-2024 03:00Scattered Clouds14°C13 mph, W38%10000m1015hPa71%
15-Jun-2024 06:00Scattered Clouds12°C13 mph, W30%10000m1016hPa80%
15-Jun-2024 09:00Clear Sky12°C16 mph, NW10%10000m1016hPa84%
15-Jun-2024 12:00Clear Sky11°C7 mph, NW5%10000m1016hPa85%
15-Jun-2024 15:00Clear Sky12°C0 mph, W0%10000m1017hPa77%
15-Jun-2024 18:00Clear Sky14°C4 mph, W1%10000m1016hPa68%
15-Jun-2024 21:00Clear Sky16°C11 mph, W2%10000m1014hPa60%
16-Jun-2024 00:00Clear Sky18°C18 mph, W2%10000m1012hPa53%
16-Jun-2024 03:00Clear Sky14°C13 mph, W0%10000m1011hPa70%
16-Jun-2024 06:00Clear Sky12°C9 mph, W0%10000m1011hPa79%
16-Jun-2024 09:00Clear Sky12°C4 mph, W0%10000m1010hPa79%
16-Jun-2024 12:00Clear Sky12°C4 mph, SW1%10000m1010hPa78%
16-Jun-2024 15:00Scattered Clouds13°C4 mph, W44%10000m1011hPa71%
16-Jun-2024 18:00Scattered Clouds14°C4 mph, SW40%10000m1010hPa70%
16-Jun-2024 21:00Overcast Clouds16°C11 mph, W100%10000m1009hPa61%
17-Jun-2024 00:00Broken Clouds17°C20 mph, W62%10000m1007hPa55%
17-Jun-2024 03:00Few Clouds13°C20 mph, W22%10000m1007hPa67%
17-Jun-2024 06:00Scattered Clouds13°C18 mph, W29%10000m1008hPa67%
17-Jun-2024 09:00Clear Sky13°C18 mph, W1%10000m1008hPa84%
17-Jun-2024 12:00Light Rain13°C11 mph, W26%10000m1009hPa93%
17-Jun-2024 15:00Light Rain13°C9 mph, N100%0m1009hPa98%
17-Jun-2024 18:00Broken Clouds15°C11 mph, W84%10000m1009hPa80%
17-Jun-2024 21:00Few Clouds16°C16 mph, W12%10000m1009hPa70%
18-Jun-2024 00:00Clear Sky16°C16 mph, W8%10000m1007hPa62%